Aviation Digital Data Service (ADDS)

Output produced by METARs form (0557 UTC 19 March 2019)
found at http://www.aviationweather.gov/metar/data/
 
Forecast for: OTBD (DOHA INTL AIRPOR, QA)
Text: TAF OTBD 190502Z 1906/2012 34012KT CAVOK
Forecast period: 0600 UTC 19 March 2019 to 1200 UTC 20 March 2019
Forecast type: FROM: standard forecast or significant change
Winds: from the NNW (340 degrees) at 14 MPH (12 knots; 6.2 m/s)
Visibility: 6 or more miles 10+ km)
Ceiling: unknown
Clouds: missing
Weather: NSW  (no significant weather)
Text: PROB30
Forecast period: 1000 to 1400 UTC 19 March 2019
Forecast type: TEMPORARY: The following changes expected for less than half the time period
Winds: from the N (350 degrees) at 15 MPH (13 knots; 6.7 m/s)
gusting to 26 MPH (23 knots; 11.8 m/s)
Visibility: 3 miles (5 km)
Ceiling: unknown
Clouds: missing
Weather: BLDU  (blowing dust)